sensor_id;sensor_type;location;lat;lon;timestamp;P1;durP1;ratioP1;P2;durP2;ratioP2
59239;SDS011;45010;53.640;10.578;2024-02-23T00:02:10;1.65;;;1.10;;
59239;SDS011;45010;53.640;10.578;2024-02-23T00:05:10;2.38;;;1.10;;
59239;SDS011;45010;53.640;10.578;2024-02-23T00:08:11;1.95;;;0.90;;
59239;SDS011;45010;53.640;10.578;2024-02-23T00:11:11;2.53;;;1.00;;
59239;SDS011;45010;53.640;10.578;2024-02-23T00:14:12;2.13;;;1.05;;
59239;SDS011;45010;53.640;10.578;2024-02-23T00:17:13;1.77;;;1.00;;
59239;SDS011;45010;53.640;10.578;2024-02-23T00:20:13;3.97;;;0.90;;
59239;SDS011;45010;53.640;10.578;2024-02-23T00:23:15;2.55;;;1.17;;
59239;SDS011;45010;53.640;10.578;2024-02-23T00:26:15;2.83;;;0.90;;
59239;SDS011;45010;53.640;10.578;2024-02-23T00:29:15;3.17;;;0.90;;
59239;SDS011;45010;53.640;10.578;2024-02-23T00:32:16;2.35;;;1.00;;
59239;SDS011;45010;53.640;10.578;2024-02-23T00:35:16;1.67;;;0.70;;
59239;SDS011;45010;53.640;10.578;2024-02-23T00:38:17;1.83;;;0.93;;
59239;SDS011;45010;53.640;10.578;2024-02-23T00:41:17;1.98;;;0.80;;
59239;SDS011;45010;53.640;10.578;2024-02-23T00:44:17;2.33;;;1.00;;
59239;SDS011;45010;53.640;10.578;2024-02-23T00:47:18;1.17;;;0.60;;
59239;SDS011;45010;53.640;10.578;2024-02-23T00:50:18;1.65;;;0.90;;
59239;SDS011;45010;53.640;10.578;2024-02-23T00:53:19;3.22;;;1.30;;
59239;SDS011;45010;53.640;10.578;2024-02-23T00:56:20;1.55;;;0.70;;
59239;SDS011;45010;53.640;10.578;2024-02-23T00:59:20;1.08;;;0.60;;
59239;SDS011;45010;53.640;10.578;2024-02-23T01:02:21;1.35;;;0.80;;
59239;SDS011;45010;53.640;10.578;2024-02-23T01:05:21;2.25;;;0.90;;
59239;SDS011;45010;53.640;10.578;2024-02-23T01:08:22;1.73;;;0.95;;
59239;SDS011;45010;53.640;10.578;2024-02-23T01:11:22;1.38;;;0.77;;
59239;SDS011;45010;53.640;10.578;2024-02-23T01:14:22;1.65;;;0.68;;
59239;SDS011;45010;53.640;10.578;2024-02-23T01:17:23;1.35;;;0.75;;
59239;SDS011;45010;53.640;10.578;2024-02-23T01:20:23;1.25;;;0.60;;
59239;SDS011;45010;53.640;10.578;2024-02-23T01:23:23;0.93;;;0.63;;
59239;SDS011;45010;53.640;10.578;2024-02-23T01:26:24;1.52;;;0.60;;
59239;SDS011;45010;53.640;10.578;2024-02-23T01:29:24;1.00;;;0.60;;
59239;SDS011;45010;53.640;10.578;2024-02-23T01:32:26;1.50;;;0.73;;
59239;SDS011;45010;53.640;10.578;2024-02-23T01:35:26;1.25;;;0.65;;
59239;SDS011;45010;53.640;10.578;2024-02-23T01:38:27;1.75;;;0.70;;
59239;SDS011;45010;53.640;10.578;2024-02-23T01:41:31;1.50;;;0.80;;
59239;SDS011;45010;53.640;10.578;2024-02-23T01:44:32;1.33;;;0.70;;
59239;SDS011;45010;53.640;10.578;2024-02-23T01:47:32;1.33;;;0.75;;
59239;SDS011;45010;53.640;10.578;2024-02-23T01:50:33;0.60;;;0.40;;
59239;SDS011;45010;53.640;10.578;2024-02-23T01:53:33;1.10;;;0.70;;
59239;SDS011;45010;53.640;10.578;2024-02-23T01:56:33;1.52;;;0.55;;
59239;SDS011;45010;53.640;10.578;2024-02-23T01:59:36;1.00;;;0.40;;
59239;SDS011;45010;53.640;10.578;2024-02-23T02:02:38;1.50;;;0.60;;
59239;SDS011;45010;53.640;10.578;2024-02-23T02:05:39;1.92;;;0.57;;
59239;SDS011;45010;53.640;10.578;2024-02-23T02:08:39;1.00;;;0.60;;
59239;SDS011;45010;53.640;10.578;2024-02-23T02:11:49;1.27;;;0.60;;
59239;SDS011;45010;53.640;10.578;2024-02-23T02:14:50;0.90;;;0.60;;
59239;SDS011;45010;53.640;10.578;2024-02-23T02:17:50;0.60;;;0.47;;
59239;SDS011;45010;53.640;10.578;2024-02-23T02:20:51;1.15;;;0.47;;
59239;SDS011;45010;53.640;10.578;2024-02-23T02:23:53;1.33;;;0.73;;
59239;SDS011;45010;53.640;10.578;2024-02-23T02:26:54;1.52;;;0.50;;
59239;SDS011;45010;53.640;10.578;2024-02-23T02:29:54;2.45;;;0.80;;
59239;SDS011;45010;53.640;10.578;2024-02-23T02:32:54;0.45;;;0.35;;
59239;SDS011;45010;53.640;10.578;2024-02-23T02:35:55;1.05;;;0.50;;
59239;SDS011;45010;53.640;10.578;2024-02-23T02:38:55;1.10;;;0.60;;
59239;SDS011;45010;53.640;10.578;2024-02-23T02:41:55;0.57;;;0.47;;
59239;SDS011;45010;53.640;10.578;2024-02-23T02:44:56;0.73;;;0.40;;
59239;SDS011;45010;53.640;10.578;2024-02-23T02:47:56;0.38;;;0.30;;
59239;SDS011;45010;53.640;10.578;2024-02-23T02:50:56;1.05;;;0.43;;
59239;SDS011;45010;53.640;10.578;2024-02-23T02:53:57;0.40;;;0.40;;
59239;SDS011;45010;53.640;10.578;2024-02-23T02:56:57;0.82;;;0.32;;
59239;SDS011;45010;53.640;10.578;2024-02-23T02:59:58;0.77;;;0.50;;
59239;SDS011;45010;53.640;10.578;2024-02-23T03:02:58;0.75;;;0.40;;
59239;SDS011;45010;53.640;10.578;2024-02-23T03:05:59;0.65;;;0.38;;
59239;SDS011;45010;53.640;10.578;2024-02-23T03:08:59;0.77;;;0.40;;
59239;SDS011;45010;53.640;10.578;2024-02-23T03:11:59;2.20;;;0.50;;
59239;SDS011;45010;53.640;10.578;2024-02-23T03:14:59;0.60;;;0.35;;
59239;SDS011;45010;53.640;10.578;2024-02-23T03:18:00;0.85;;;0.35;;
59239;SDS011;45010;53.640;10.578;2024-02-23T03:21:01;0.40;;;0.30;;
59239;SDS011;45010;53.640;10.578;2024-02-23T03:24:01;0.55;;;0.30;;
59239;SDS011;45010;53.640;10.578;2024-02-23T03:27:03;0.40;;;0.38;;
59239;SDS011;45010;53.640;10.578;2024-02-23T03:30:03;1.20;;;0.50;;
59239;SDS011;45010;53.640;10.578;2024-02-23T03:33:05;1.15;;;0.28;;
59239;SDS011;45010;53.640;10.578;2024-02-23T03:36:05;0.43;;;0.30;;
59239;SDS011;45010;53.640;10.578;2024-02-23T03:39:05;0.32;;;0.20;;
59239;SDS011;45010;53.640;10.578;2024-02-23T03:42:06;0.55;;;0.40;;
59239;SDS011;45010;53.640;10.578;2024-02-23T03:45:06;0.60;;;0.40;;
59239;SDS011;45010;53.640;10.578;2024-02-23T03:48:07;1.02;;;0.30;;
59239;SDS011;45010;53.640;10.578;2024-02-23T03:51:08;0.60;;;0.30;;
59239;SDS011;45010;53.640;10.578;2024-02-23T03:54:08;0.60;;;0.30;;
59239;SDS011;45010;53.640;10.578;2024-02-23T03:57:09;0.57;;;0.40;;
59239;SDS011;45010;53.640;10.578;2024-02-23T04:00:09;0.57;;;0.40;;
59239;SDS011;45010;53.640;10.578;2024-02-23T04:03:10;1.48;;;0.60;;
59239;SDS011;45010;53.640;10.578;2024-02-23T04:06:10;0.35;;;0.32;;
59239;SDS011;45010;53.640;10.578;2024-02-23T04:09:11;0.68;;;0.40;;
59239;SDS011;45010;53.640;10.578;2024-02-23T04:12:11;0.82;;;0.38;;
59239;SDS011;45010;53.640;10.578;2024-02-23T04:15:12;0.40;;;0.30;;
59239;SDS011;45010;53.640;10.578;2024-02-23T04:18:12;0.30;;;0.20;;
59239;SDS011;45010;53.640;10.578;2024-02-23T04:21:13;0.75;;;0.30;;
59239;SDS011;45010;53.640;10.578;2024-02-23T04:24:15;0.38;;;0.30;;
59239;SDS011;45010;53.640;10.578;2024-02-23T04:27:15;0.30;;;0.30;;
59239;SDS011;45010;53.640;10.578;2024-02-23T04:30:16;0.22;;;0.20;;
59239;SDS011;45010;53.640;10.578;2024-02-23T04:33:16;0.30;;;0.22;;
59239;SDS011;45010;53.640;10.578;2024-02-23T04:36:18;0.43;;;0.30;;
59239;SDS011;45010;53.640;10.578;2024-02-23T04:39:21;0.30;;;0.30;;
59239;SDS011;45010;53.640;10.578;2024-02-23T04:42:21;0.30;;;0.20;;
59239;SDS011;45010;53.640;10.578;2024-02-23T04:45:21;0.45;;;0.28;;
59239;SDS011;45010;53.640;10.578;2024-02-23T04:48:22;0.30;;;0.20;;
59239;SDS011;45010;53.640;10.578;2024-02-23T04:51:22;0.32;;;0.20;;
59239;SDS011;45010;53.640;10.578;2024-02-23T04:54:23;0.28;;;0.10;;
59239;SDS011;45010;53.640;10.578;2024-02-23T04:57:23;0.52;;;0.28;;
59239;SDS011;45010;53.640;10.578;2024-02-23T05:00:23;0.15;;;0.15;;
59239;SDS011;45010;53.640;10.578;2024-02-23T05:03:28;0.25;;;0.25;;
59239;SDS011;45010;53.640;10.578;2024-02-23T05:06:29;0.70;;;0.22;;
59239;SDS011;45010;53.640;10.578;2024-02-23T05:09:30;0.40;;;0.25;;
59239;SDS011;45010;53.640;10.578;2024-02-23T05:12:30;0.32;;;0.20;;
59239;SDS011;45010;53.640;10.578;2024-02-23T05:15:30;0.30;;;0.22;;
59239;SDS011;45010;53.640;10.578;2024-02-23T05:18:30;0.73;;;0.40;;
59239;SDS011;45010;53.640;10.578;2024-02-23T05:21:31;0.30;;;0.30;;
59239;SDS011;45010;53.640;10.578;2024-02-23T05:24:31;0.20;;;0.20;;
59239;SDS011;45010;53.640;10.578;2024-02-23T05:27:31;0.77;;;0.30;;
59239;SDS011;45010;53.640;10.578;2024-02-23T05:30:32;0.60;;;0.20;;
59239;SDS011;45010;53.640;10.578;2024-02-23T05:33:32;0.52;;;0.20;;
59239;SDS011;45010;53.640;10.578;2024-02-23T05:36:32;0.40;;;0.20;;
59239;SDS011;45010;53.640;10.578;2024-02-23T05:39:33;0.20;;;0.20;;
59239;SDS011;45010;53.640;10.578;2024-02-23T05:42:33;0.45;;;0.20;;
59239;SDS011;45010;53.640;10.578;2024-02-23T05:45:33;0.20;;;0.20;;
59239;SDS011;45010;53.640;10.578;2024-02-23T05:48:34;0.30;;;0.20;;
59239;SDS011;45010;53.640;10.578;2024-02-23T05:51:34;1.10;;;0.30;;
59239;SDS011;45010;53.640;10.578;2024-02-23T05:54:35;0.43;;;0.22;;
59239;SDS011;45010;53.640;10.578;2024-02-23T05:57:35;0.20;;;0.20;;
59239;SDS011;45010;53.640;10.578;2024-02-23T06:00:36;0.32;;;0.20;;
59239;SDS011;45010;53.640;10.578;2024-02-23T06:03:36;0.45;;;0.20;;
59239;SDS011;45010;53.640;10.578;2024-02-23T06:06:36;0.20;;;0.20;;
59239;SDS011;45010;53.640;10.578;2024-02-23T06:09:37;0.30;;;0.30;;
59239;SDS011;45010;53.640;10.578;2024-02-23T06:12:38;1.10;;;0.10;;
59239;SDS011;45010;53.640;10.578;2024-02-23T06:15:39;0.52;;;0.20;;
59239;SDS011;45010;53.640;10.578;2024-02-23T06:18:39;0.32;;;0.30;;
59239;SDS011;45010;53.640;10.578;2024-02-23T06:21:41;0.30;;;0.20;;
59239;SDS011;45010;53.640;10.578;2024-02-23T06:24:41;0.10;;;0.10;;
59239;SDS011;45010;53.640;10.578;2024-02-23T06:27:41;0.63;;;0.10;;
59239;SDS011;45010;53.640;10.578;2024-02-23T06:30:42;0.15;;;0.10;;
59239;SDS011;45010;53.640;10.578;2024-02-23T06:33:42;0.32;;;0.20;;
59239;SDS011;45010;53.640;10.578;2024-02-23T06:36:43;0.35;;;0.20;;
59239;SDS011;45010;53.640;10.578;2024-02-23T06:39:43;0.20;;;0.20;;
59239;SDS011;45010;53.640;10.578;2024-02-23T06:42:44;0.45;;;0.20;;
59239;SDS011;45010;53.640;10.578;2024-02-23T06:45:45;0.20;;;0.15;;
59239;SDS011;45010;53.640;10.578;2024-02-23T06:48:45;0.25;;;0.20;;
59239;SDS011;45010;53.640;10.578;2024-02-23T06:51:45;0.43;;;0.10;;
59239;SDS011;45010;53.640;10.578;2024-02-23T06:54:46;0.40;;;0.10;;
59239;SDS011;45010;53.640;10.578;2024-02-23T06:57:46;0.20;;;0.10;;
59239;SDS011;45010;53.640;10.578;2024-02-23T07:00:47;0.20;;;0.20;;
59239;SDS011;45010;53.640;10.578;2024-02-23T07:03:47;0.10;;;0.10;;
59239;SDS011;45010;53.640;10.578;2024-02-23T07:06:50;0.20;;;0.20;;
59239;SDS011;45010;53.640;10.578;2024-02-23T07:09:51;0.10;;;0.10;;
59239;SDS011;45010;53.640;10.578;2024-02-23T07:12:52;0.20;;;0.20;;
59239;SDS011;45010;53.640;10.578;2024-02-23T07:15:59;0.38;;;0.28;;
59239;SDS011;45010;53.640;10.578;2024-02-23T07:19:00;0.35;;;0.10;;
59239;SDS011;45010;53.640;10.578;2024-02-23T07:22:00;0.25;;;0.17;;
59239;SDS011;45010;53.640;10.578;2024-02-23T07:25:02;0.22;;;0.20;;
59239;SDS011;45010;53.640;10.578;2024-02-23T07:28:03;0.45;;;0.20;;
59239;SDS011;45010;53.640;10.578;2024-02-23T07:31:04;0.10;;;0.10;;
59239;SDS011;45010;53.640;10.578;2024-02-23T07:34:04;0.77;;;0.30;;
59239;SDS011;45010;53.640;10.578;2024-02-23T07:37:05;1.17;;;0.43;;
59239;SDS011;45010;53.640;10.578;2024-02-23T07:40:05;2.25;;;0.40;;
59239;SDS011;45010;53.640;10.578;2024-02-23T07:43:06;0.68;;;0.30;;
59239;SDS011;45010;53.640;10.578;2024-02-23T07:46:06;0.80;;;0.30;;
59239;SDS011;45010;53.640;10.578;2024-02-23T07:49:09;1.70;;;0.30;;
59239;SDS011;45010;53.640;10.578;2024-02-23T07:52:09;1.73;;;0.28;;
59239;SDS011;45010;53.640;10.578;2024-02-23T07:55:10;1.20;;;0.40;;
59239;SDS011;45010;53.640;10.578;2024-02-23T07:58:10;1.85;;;0.40;;
59239;SDS011;45010;53.640;10.578;2024-02-23T08:01:11;1.38;;;0.30;;
59239;SDS011;45010;53.640;10.578;2024-02-23T08:04:11;1.38;;;0.40;;
59239;SDS011;45010;53.640;10.578;2024-02-23T08:07:13;1.08;;;0.25;;
59239;SDS011;45010;53.640;10.578;2024-02-23T08:10:14;0.20;;;0.20;;
59239;SDS011;45010;53.640;10.578;2024-02-23T08:13:14;0.80;;;0.40;;
59239;SDS011;45010;53.640;10.578;2024-02-23T08:16:15;1.02;;;0.60;;
59239;SDS011;45010;53.640;10.578;2024-02-23T08:19:16;3.50;;;0.70;;
59239;SDS011;45010;53.640;10.578;2024-02-23T08:22:17;1.98;;;0.20;;
59239;SDS011;45010;53.640;10.578;2024-02-23T08:25:17;2.42;;;0.47;;
59239;SDS011;45010;53.640;10.578;2024-02-23T08:28:18;1.55;;;0.50;;
59239;SDS011;45010;53.640;10.578;2024-02-23T08:31:18;0.57;;;0.22;;
59239;SDS011;45010;53.640;10.578;2024-02-23T08:34:18;1.00;;;0.38;;
59239;SDS011;45010;53.640;10.578;2024-02-23T08:37:19;1.65;;;0.50;;
59239;SDS011;45010;53.640;10.578;2024-02-23T08:40:19;0.65;;;0.22;;
59239;SDS011;45010;53.640;10.578;2024-02-23T08:43:19;1.27;;;0.30;;
59239;SDS011;45010;53.640;10.578;2024-02-23T08:46:20;2.25;;;0.43;;
59239;SDS011;45010;53.640;10.578;2024-02-23T08:49:20;1.25;;;0.50;;
59239;SDS011;45010;53.640;10.578;2024-02-23T08:52:20;5.30;;;0.50;;
59239;SDS011;45010;53.640;10.578;2024-02-23T08:55:21;1.73;;;0.40;;
59239;SDS011;45010;53.640;10.578;2024-02-23T08:58:21;1.08;;;0.30;;
59239;SDS011;45010;53.640;10.578;2024-02-23T09:01:21;1.77;;;0.47;;
59239;SDS011;45010;53.640;10.578;2024-02-23T09:04:22;1.40;;;0.50;;
59239;SDS011;45010;53.640;10.578;2024-02-23T09:07:23;2.20;;;0.77;;
59239;SDS011;45010;53.640;10.578;2024-02-23T09:10:24;2.42;;;0.60;;
59239;SDS011;45010;53.640;10.578;2024-02-23T09:13:24;1.88;;;0.65;;
59239;SDS011;45010;53.640;10.578;2024-02-23T09:16:26;1.52;;;0.65;;
59239;SDS011;45010;53.640;10.578;2024-02-23T09:19:26;2.85;;;1.10;;
59239;SDS011;45010;53.640;10.578;2024-02-23T09:22:27;1.55;;;0.80;;
59239;SDS011;45010;53.640;10.578;2024-02-23T09:25:28;1.42;;;0.70;;
59239;SDS011;45010;53.640;10.578;2024-02-23T09:28:29;1.92;;;0.60;;
59239;SDS011;45010;53.640;10.578;2024-02-23T09:31:30;1.70;;;0.80;;
59239;SDS011;45010;53.640;10.578;2024-02-23T09:34:31;3.28;;;0.80;;
59239;SDS011;45010;53.640;10.578;2024-02-23T09:37:32;3.53;;;0.60;;
59239;SDS011;45010;53.640;10.578;2024-02-23T09:40:32;2.60;;;0.77;;
59239;SDS011;45010;53.640;10.578;2024-02-23T09:43:33;3.63;;;0.50;;
59239;SDS011;45010;53.640;10.578;2024-02-23T09:46:34;4.00;;;0.85;;
59239;SDS011;45010;53.640;10.578;2024-02-23T09:49:40;3.15;;;0.60;;
59239;SDS011;45010;53.640;10.578;2024-02-23T09:52:41;2.22;;;0.82;;
59239;SDS011;45010;53.640;10.578;2024-02-23T09:55:42;2.83;;;0.70;;
59239;SDS011;45010;53.640;10.578;2024-02-23T09:58:44;1.63;;;0.73;;
59239;SDS011;45010;53.640;10.578;2024-02-23T10:01:47;2.47;;;0.65;;
59239;SDS011;45010;53.640;10.578;2024-02-23T10:04:48;3.78;;;0.85;;
59239;SDS011;45010;53.640;10.578;2024-02-23T10:07:51;1.60;;;0.68;;
59239;SDS011;45010;53.640;10.578;2024-02-23T10:10:54;1.95;;;0.70;;
59239;SDS011;45010;53.640;10.578;2024-02-23T10:13:55;2.05;;;0.75;;
59239;SDS011;45010;53.640;10.578;2024-02-23T10:16:55;2.25;;;0.60;;
59239;SDS011;45010;53.640;10.578;2024-02-23T10:19:56;1.20;;;0.60;;
59239;SDS011;45010;53.640;10.578;2024-02-23T10:22:59;5.00;;;0.60;;
59239;SDS011;45010;53.640;10.578;2024-02-23T10:26:00;1.38;;;0.60;;
59239;SDS011;45010;53.640;10.578;2024-02-23T10:29:00;2.05;;;0.47;;
59239;SDS011;45010;53.640;10.578;2024-02-23T10:32:01;3.75;;;0.57;;
59239;SDS011;45010;53.640;10.578;2024-02-23T10:35:01;2.90;;;0.65;;
59239;SDS011;45010;53.640;10.578;2024-02-23T10:38:04;2.65;;;0.70;;
59239;SDS011;45010;53.640;10.578;2024-02-23T10:41:09;0.75;;;0.40;;
59239;SDS011;45010;53.640;10.578;2024-02-23T10:44:15;3.60;;;0.73;;
59239;SDS011;45010;53.640;10.578;2024-02-23T10:47:16;2.03;;;0.82;;
59239;SDS011;45010;53.640;10.578;2024-02-23T10:50:20;2.50;;;0.95;;
59239;SDS011;45010;53.640;10.578;2024-02-23T10:53:21;2.33;;;0.70;;
59239;SDS011;45010;53.640;10.578;2024-02-23T10:56:23;1.15;;;0.55;;
59239;SDS011;45010;53.640;10.578;2024-02-23T10:59:26;1.90;;;0.80;;
59239;SDS011;45010;53.640;10.578;2024-02-23T11:02:27;1.30;;;0.50;;
59239;SDS011;45010;53.640;10.578;2024-02-23T11:05:30;1.73;;;0.68;;
59239;SDS011;45010;53.640;10.578;2024-02-23T11:08:34;3.17;;;1.00;;
59239;SDS011;45010;53.640;10.578;2024-02-23T11:11:38;1.20;;;0.60;;
59239;SDS011;45010;53.640;10.578;2024-02-23T11:14:38;3.05;;;0.80;;
59239;SDS011;45010;53.640;10.578;2024-02-23T11:17:39;2.28;;;0.60;;
59239;SDS011;45010;53.640;10.578;2024-02-23T11:20:39;1.00;;;0.60;;
59239;SDS011;45010;53.640;10.578;2024-02-23T11:23:40;1.83;;;0.68;;
59239;SDS011;45010;53.640;10.578;2024-02-23T11:26:41;1.38;;;0.63;;
59239;SDS011;45010;53.640;10.578;2024-02-23T11:29:41;2.55;;;0.68;;
59239;SDS011;45010;53.640;10.578;2024-02-23T11:32:44;1.10;;;0.60;;
59239;SDS011;45010;53.640;10.578;2024-02-23T11:35:47;1.42;;;0.70;;
59239;SDS011;45010;53.640;10.578;2024-02-23T11:38:54;3.25;;;0.68;;
59239;SDS011;45010;53.640;10.578;2024-02-23T11:41:57;3.47;;;0.55;;
59239;SDS011;45010;53.640;10.578;2024-02-23T11:44:59;2.38;;;1.10;;
59239;SDS011;45010;53.640;10.578;2024-02-23T11:48:00;1.92;;;0.60;;
59239;SDS011;45010;53.640;10.578;2024-02-23T11:51:00;1.10;;;0.60;;
59239;SDS011;45010;53.640;10.578;2024-02-23T11:54:01;2.42;;;0.65;;
59239;SDS011;45010;53.640;10.578;2024-02-23T11:57:01;2.22;;;0.93;;
59239;SDS011;45010;53.640;10.578;2024-02-23T12:00:02;2.58;;;0.77;;
59239;SDS011;45010;53.640;10.578;2024-02-23T12:03:03;2.47;;;0.60;;
59239;SDS011;45010;53.640;10.578;2024-02-23T12:06:05;2.55;;;0.73;;
59239;SDS011;45010;53.640;10.578;2024-02-23T12:09:07;3.15;;;1.17;;
59239;SDS011;45010;53.640;10.578;2024-02-23T12:12:08;2.13;;;0.93;;
59239;SDS011;45010;53.640;10.578;2024-02-23T12:15:09;3.08;;;0.70;;
59239;SDS011;45010;53.640;10.578;2024-02-23T12:18:10;2.60;;;0.82;;
59239;SDS011;45010;53.640;10.578;2024-02-23T12:21:12;6.65;;;1.88;;
59239;SDS011;45010;53.640;10.578;2024-02-23T12:24:13;20.88;;;5.32;;
59239;SDS011;45010;53.640;10.578;2024-02-23T12:27:16;21.48;;;3.33;;
59239;SDS011;45010;53.640;10.578;2024-02-23T12:30:17;10.63;;;2.70;;
59239;SDS011;45010;53.640;10.578;2024-02-23T12:33:18;8.77;;;2.30;;
59239;SDS011;45010;53.640;10.578;2024-02-23T12:36:18;9.90;;;2.47;;
59239;SDS011;45010;53.640;10.578;2024-02-23T12:39:18;9.23;;;1.60;;
59239;SDS011;45010;53.640;10.578;2024-02-23T12:42:19;13.02;;;2.58;;
59239;SDS011;45010;53.640;10.578;2024-02-23T12:45:19;9.90;;;2.50;;
59239;SDS011;45010;53.640;10.578;2024-02-23T12:48:20;14.75;;;3.15;;
59239;SDS011;45010;53.640;10.578;2024-02-23T12:51:24;10.70;;;2.72;;
59239;SDS011;45010;53.640;10.578;2024-02-23T12:54:25;7.70;;;2.47;;
59239;SDS011;45010;53.640;10.578;2024-02-23T12:57:26;10.27;;;2.88;;
59239;SDS011;45010;53.640;10.578;2024-02-23T13:00:26;10.60;;;2.00;;
59239;SDS011;45010;53.640;10.578;2024-02-23T13:03:27;7.15;;;2.10;;
59239;SDS011;45010;53.640;10.578;2024-02-23T13:06:28;9.63;;;2.20;;
59239;SDS011;45010;53.640;10.578;2024-02-23T13:09:29;5.43;;;1.60;;
59239;SDS011;45010;53.640;10.578;2024-02-23T13:12:29;5.88;;;1.77;;
59239;SDS011;45010;53.640;10.578;2024-02-23T13:15:29;5.43;;;1.90;;
59239;SDS011;45010;53.640;10.578;2024-02-23T13:18:30;3.45;;;1.73;;
59239;SDS011;45010;53.640;10.578;2024-02-23T13:21:30;6.20;;;2.08;;
59239;SDS011;45010;53.640;10.578;2024-02-23T13:24:32;3.50;;;1.52;;
59239;SDS011;45010;53.640;10.578;2024-02-23T13:27:32;4.85;;;1.20;;
59239;SDS011;45010;53.640;10.578;2024-02-23T13:30:33;7.95;;;1.60;;
59239;SDS011;45010;53.640;10.578;2024-02-23T13:33:34;5.47;;;1.40;;
59239;SDS011;45010;53.640;10.578;2024-02-23T13:36:34;4.78;;;1.75;;
59239;SDS011;45010;53.640;10.578;2024-02-23T13:39:34;5.15;;;1.33;;
59239;SDS011;45010;53.640;10.578;2024-02-23T13:42:35;4.13;;;1.23;;
59239;SDS011;45010;53.640;10.578;2024-02-23T13:45:48;5.18;;;1.35;;
59239;SDS011;45010;53.640;10.578;2024-02-23T13:49:01;5.25;;;1.27;;
59239;SDS011;45010;53.640;10.578;2024-02-23T13:52:02;4.03;;;1.20;;
59239;SDS011;45010;53.640;10.578;2024-02-23T13:55:03;7.05;;;1.70;;
59239;SDS011;45010;53.640;10.578;2024-02-23T13:58:04;2.97;;;1.15;;
59239;SDS011;45010;53.640;10.578;2024-02-23T14:01:04;3.35;;;1.05;;
59239;SDS011;45010;53.640;10.578;2024-02-23T14:04:06;2.85;;;1.35;;
59239;SDS011;45010;53.640;10.578;2024-02-23T14:07:07;3.72;;;1.38;;
59239;SDS011;45010;53.640;10.578;2024-02-23T14:10:07;2.47;;;1.00;;
59239;SDS011;45010;53.640;10.578;2024-02-23T14:13:08;2.92;;;1.10;;
59239;SDS011;45010;53.640;10.578;2024-02-23T14:16:09;7.33;;;2.33;;
59239;SDS011;45010;53.640;10.578;2024-02-23T14:19:09;4.93;;;1.60;;
59239;SDS011;45010;53.640;10.578;2024-02-23T14:22:10;3.63;;;1.40;;
59239;SDS011;45010;53.640;10.578;2024-02-23T14:25:10;3.28;;;1.27;;
59239;SDS011;45010;53.640;10.578;2024-02-23T14:28:10;5.20;;;1.88;;
59239;SDS011;45010;53.640;10.578;2024-02-23T14:31:12;5.25;;;1.73;;
59239;SDS011;45010;53.640;10.578;2024-02-23T14:34:12;4.50;;;1.20;;
59239;SDS011;45010;53.640;10.578;2024-02-23T14:37:12;5.20;;;1.70;;
59239;SDS011;45010;53.640;10.578;2024-02-23T14:40:13;4.40;;;1.33;;
59239;SDS011;45010;53.640;10.578;2024-02-23T14:43:15;6.13;;;1.80;;
59239;SDS011;45010;53.640;10.578;2024-02-23T14:46:15;3.55;;;1.42;;
59239;SDS011;45010;53.640;10.578;2024-02-23T14:49:15;4.72;;;1.58;;
59239;SDS011;45010;53.640;10.578;2024-02-23T14:52:16;3.85;;;1.58;;
59239;SDS011;45010;53.640;10.578;2024-02-23T14:55:16;5.32;;;1.33;;
59239;SDS011;45010;53.640;10.578;2024-02-23T14:58:16;3.78;;;1.77;;
59239;SDS011;45010;53.640;10.578;2024-02-23T15:01:17;4.45;;;1.17;;
59239;SDS011;45010;53.640;10.578;2024-02-23T15:04:17;2.92;;;1.25;;
59239;SDS011;45010;53.640;10.578;2024-02-23T15:07:18;5.45;;;2.13;;
59239;SDS011;45010;53.640;10.578;2024-02-23T15:10:18;4.57;;;1.55;;
59239;SDS011;45010;53.640;10.578;2024-02-23T15:13:19;3.42;;;0.98;;
59239;SDS011;45010;53.640;10.578;2024-02-23T15:16:19;7.65;;;1.83;;
59239;SDS011;45010;53.640;10.578;2024-02-23T15:19:19;4.60;;;1.55;;
59239;SDS011;45010;53.640;10.578;2024-02-23T15:22:20;3.17;;;1.45;;
59239;SDS011;45010;53.640;10.578;2024-02-23T15:25:21;3.90;;;1.63;;
59239;SDS011;45010;53.640;10.578;2024-02-23T15:28:21;4.65;;;1.70;;
59239;SDS011;45010;53.640;10.578;2024-02-23T15:31:24;4.63;;;1.33;;
59239;SDS011;45010;53.640;10.578;2024-02-23T15:34:24;2.95;;;1.23;;
59239;SDS011;45010;53.640;10.578;2024-02-23T15:37:24;3.95;;;1.15;;
59239;SDS011;45010;53.640;10.578;2024-02-23T15:40:25;3.50;;;1.25;;
59239;SDS011;45010;53.640;10.578;2024-02-23T15:43:25;3.22;;;1.00;;
59239;SDS011;45010;53.640;10.578;2024-02-23T15:46:28;3.40;;;1.42;;
59239;SDS011;45010;53.640;10.578;2024-02-23T15:49:29;3.83;;;1.45;;
59239;SDS011;45010;53.640;10.578;2024-02-23T15:52:29;3.95;;;1.15;;
59239;SDS011;45010;53.640;10.578;2024-02-23T15:55:31;3.15;;;1.23;;
59239;SDS011;45010;53.640;10.578;2024-02-23T15:58:31;3.28;;;1.10;;
59239;SDS011;45010;53.640;10.578;2024-02-23T16:01:31;2.78;;;1.20;;
59239;SDS011;45010;53.640;10.578;2024-02-23T16:04:32;3.00;;;1.42;;
59239;SDS011;45010;53.640;10.578;2024-02-23T16:07:32;4.35;;;1.00;;
59239;SDS011;45010;53.640;10.578;2024-02-23T16:10:33;2.97;;;0.90;;
59239;SDS011;45010;53.640;10.578;2024-02-23T16:13:34;2.17;;;1.10;;
59239;SDS011;45010;53.640;10.578;2024-02-23T16:16:34;1.48;;;0.93;;
59239;SDS011;45010;53.640;10.578;2024-02-23T16:19:34;2.72;;;0.90;;
59239;SDS011;45010;53.640;10.578;2024-02-23T16:22:34;3.00;;;1.38;;
59239;SDS011;45010;53.640;10.578;2024-02-23T16:25:35;3.22;;;1.10;;
59239;SDS011;45010;53.640;10.578;2024-02-23T16:28:35;3.03;;;1.02;;
59239;SDS011;45010;53.640;10.578;2024-02-23T16:31:36;3.40;;;1.45;;
59239;SDS011;45010;53.640;10.578;2024-02-23T16:34:36;3.67;;;0.88;;
59239;SDS011;45010;53.640;10.578;2024-02-23T16:37:39;2.80;;;1.40;;
59239;SDS011;45010;53.640;10.578;2024-02-23T16:40:39;3.72;;;1.00;;
59239;SDS011;45010;53.640;10.578;2024-02-23T16:43:41;2.30;;;1.10;;
59239;SDS011;45010;53.640;10.578;2024-02-23T16:46:41;1.88;;;0.73;;
59239;SDS011;45010;53.640;10.578;2024-02-23T16:49:41;2.08;;;0.90;;
59239;SDS011;45010;53.640;10.578;2024-02-23T16:52:42;2.78;;;1.00;;
59239;SDS011;45010;53.640;10.578;2024-02-23T16:55:42;2.95;;;0.85;;
59239;SDS011;45010;53.640;10.578;2024-02-23T16:58:43;3.38;;;0.90;;
59239;SDS011;45010;53.640;10.578;2024-02-23T17:01:44;2.40;;;0.80;;
59239;SDS011;45010;53.640;10.578;2024-02-23T17:04:44;1.98;;;0.80;;
59239;SDS011;45010;53.640;10.578;2024-02-23T17:07:44;1.48;;;0.70;;
59239;SDS011;45010;53.640;10.578;2024-02-23T17:10:45;3.22;;;0.90;;
59239;SDS011;45010;53.640;10.578;2024-02-23T17:13:45;2.00;;;0.80;;
59239;SDS011;45010;53.640;10.578;2024-02-23T17:16:46;5.15;;;1.15;;
59239;SDS011;45010;53.640;10.578;2024-02-23T17:19:46;2.63;;;0.55;;
59239;SDS011;45010;53.640;10.578;2024-02-23T17:22:47;2.30;;;0.63;;
59239;SDS011;45010;53.640;10.578;2024-02-23T17:25:48;2.33;;;0.90;;
59239;SDS011;45010;53.640;10.578;2024-02-23T17:28:49;3.75;;;1.02;;
59239;SDS011;45010;53.640;10.578;2024-02-23T17:31:50;2.47;;;1.10;;
59239;SDS011;45010;53.640;10.578;2024-02-23T17:34:50;2.65;;;0.90;;
59239;SDS011;45010;53.640;10.578;2024-02-23T17:37:51;1.80;;;1.02;;
59239;SDS011;45010;53.640;10.578;2024-02-23T17:40:51;2.13;;;0.57;;
59239;SDS011;45010;53.640;10.578;2024-02-23T17:43:53;1.60;;;0.60;;
59239;SDS011;45010;53.640;10.578;2024-02-23T17:46:56;1.73;;;0.80;;
59239;SDS011;45010;53.640;10.578;2024-02-23T17:49:56;2.08;;;0.82;;
59239;SDS011;45010;53.640;10.578;2024-02-23T17:52:57;1.02;;;0.50;;